Camden, IN (46917)

9:37 AM EDT on July 03, 2015 (GMT -0400)
Carroll Jr/Sr High School | | Change Station
CLOSE
Current Station
Personal Weather Station
Location: Flora, IN
Elevation: 715 ft
Nearby Weather Stations

Elev 715 ft 40.55 °N, 86.48 °W | Updated 24 seconds ago

Overcast
Overcast
64.5 °F
Feels Like 64.5 °F
N
4.7
Wind Variable Wind from NNE
Gusts 5.1 mph

Today
High -- | Low -- °F
--% Chance of Precip.
Yesterday
High -- | Low -- °F
Precip. -- in
6:19 AM 9:20 PM
Full, 97% visible
Pressure 29.96 in
Visibility 10.0 miles
Clouds Clear
Dew Point 30 °F
Humidity 27%
Rainfall 0.00 in
Snow Depth Not available.
UV 3 out of 12
Pollen .50 out of 12
Air Quality Not available.
Flu Activity Not available.
METAR KGGP 031315Z AUTO 07005KT 10SM CLR 16/11 A2996 RMK AO2

More Conditions Fewer Conditions

Pressure 29.96 in
Visibility 10.0 miles
Clouds Clear
Dew Point 30 °F
Humidity 27%
Rainfall 0.00 in
Snow Depth Not available.
UV 3 out of 12
Pollen .50 out of 12
Air Quality Not available.
Flu Activity Not available.
METAR KGGP 031315Z AUTO 07005KT 10SM CLR 16/11 A2996 RMK AO2

More Conditions Fewer Conditions

10-Day Weather Forecast

×

Almanac

Astronomy

Jul. 03, 2015 Rise Set
Actual Time
Civil Twilight
Nautical Twilight
Astronomical Twilight
Moon
Length of Visible Light
Length of Day
Tomorrow will be .
, % of the Moon is Illuminated

Today's Extremes

State Highs State Lows

Community

WunderPhotos

Upload Photos

1,834,670 photos uploaded!

WunderBlogs® & News

Nearby

Air Quality

  Air Quality AQ Index Pollutant
Not available.

Snow Depth

Station Depth Elevation

Earthquake Activity

City Distance Mag. Time & Date
Minimum magnitude displayed is 2.5.

Coastal Water Temperatures

Place Temperature

Stations

Nearby Weather Stations

Station Location Temp. Windchill Dew Point Humidity Wind Precip. Elev Updated Type